sensor_id;sensor_type;location;lat;lon;timestamp;P1;durP1;ratioP1;P2;durP2;ratioP2
52554;SDS011;38455;52.710;6.502;2023-05-14T00:01:12;18.70;;;11.07;;
52554;SDS011;38455;52.710;6.502;2023-05-14T00:03:37;21.20;;;11.80;;
52554;SDS011;38455;52.710;6.502;2023-05-14T00:06:05;18.52;;;11.05;;
52554;SDS011;38455;52.710;6.502;2023-05-14T00:08:32;19.98;;;10.60;;
52554;SDS011;38455;52.710;6.502;2023-05-14T00:10:57;22.25;;;11.13;;
52554;SDS011;38455;52.710;6.502;2023-05-14T00:13:24;18.85;;;11.02;;
52554;SDS011;38455;52.710;6.502;2023-05-14T00:15:50;24.27;;;11.38;;
52554;SDS011;38455;52.710;6.502;2023-05-14T00:18:15;22.35;;;10.73;;
52554;SDS011;38455;52.710;6.502;2023-05-14T00:20:41;25.92;;;10.88;;
52554;SDS011;38455;52.710;6.502;2023-05-14T00:23:07;18.77;;;10.25;;
52554;SDS011;38455;52.710;6.502;2023-05-14T00:25:32;20.90;;;11.35;;
52554;SDS011;38455;52.710;6.502;2023-05-14T00:27:58;18.50;;;11.30;;
52554;SDS011;38455;52.710;6.502;2023-05-14T00:30:24;23.30;;;11.35;;
52554;SDS011;38455;52.710;6.502;2023-05-14T00:32:50;15.80;;;10.45;;
52554;SDS011;38455;52.710;6.502;2023-05-14T00:35:15;19.73;;;10.52;;
52554;SDS011;38455;52.710;6.502;2023-05-14T00:37:41;20.83;;;12.52;;
52554;SDS011;38455;52.710;6.502;2023-05-14T00:40:07;19.40;;;11.32;;
52554;SDS011;38455;52.710;6.502;2023-05-14T00:42:35;22.15;;;11.55;;
52554;SDS011;38455;52.710;6.502;2023-05-14T00:45:01;23.58;;;12.65;;
52554;SDS011;38455;52.710;6.502;2023-05-14T00:47:27;23.65;;;10.93;;
52554;SDS011;38455;52.710;6.502;2023-05-14T00:49:52;23.50;;;11.32;;
52554;SDS011;38455;52.710;6.502;2023-05-14T00:52:18;15.27;;;11.50;;
52554;SDS011;38455;52.710;6.502;2023-05-14T00:54:45;21.75;;;11.30;;
52554;SDS011;38455;52.710;6.502;2023-05-14T00:57:11;20.70;;;11.10;;
52554;SDS011;38455;52.710;6.502;2023-05-14T00:59:37;21.27;;;11.52;;
52554;SDS011;38455;52.710;6.502;2023-05-14T01:02:05;19.60;;;11.30;;
52554;SDS011;38455;52.710;6.502;2023-05-14T01:04:31;18.98;;;11.40;;
52554;SDS011;38455;52.710;6.502;2023-05-14T01:07:18;21.67;;;11.73;;
52554;SDS011;38455;52.710;6.502;2023-05-14T01:17:47;23.38;;;12.48;;
52554;SDS011;38455;52.710;6.502;2023-05-14T01:20:25;30.23;;;12.27;;
52554;SDS011;38455;52.710;6.502;2023-05-14T01:22:51;19.95;;;11.20;;
52554;SDS011;38455;52.710;6.502;2023-05-14T01:25:17;18.92;;;11.57;;
52554;SDS011;38455;52.710;6.502;2023-05-14T01:27:48;21.92;;;12.75;;
52554;SDS011;38455;52.710;6.502;2023-05-14T01:30:21;21.90;;;12.10;;
52554;SDS011;38455;52.710;6.502;2023-05-14T01:32:56;22.63;;;11.85;;
52554;SDS011;38455;52.710;6.502;2023-05-14T01:35:27;22.88;;;12.15;;
52554;SDS011;38455;52.710;6.502;2023-05-14T01:37:54;18.77;;;12.23;;
52554;SDS011;38455;52.710;6.502;2023-05-14T01:40:22;22.75;;;11.93;;
52554;SDS011;38455;52.710;6.502;2023-05-14T01:42:49;19.75;;;12.15;;
52554;SDS011;38455;52.710;6.502;2023-05-14T01:45:20;19.95;;;12.00;;
52554;SDS011;38455;52.710;6.502;2023-05-14T01:47:49;20.27;;;11.80;;
52554;SDS011;38455;52.710;6.502;2023-05-14T01:50:15;20.42;;;13.13;;
52554;SDS011;38455;52.710;6.502;2023-05-14T01:52:41;17.65;;;11.68;;
52554;SDS011;38455;52.710;6.502;2023-05-14T01:55:07;18.23;;;12.32;;
52554;SDS011;38455;52.710;6.502;2023-05-14T01:57:33;20.40;;;12.90;;
52554;SDS011;38455;52.710;6.502;2023-05-14T01:59:59;28.05;;;13.02;;
52554;SDS011;38455;52.710;6.502;2023-05-14T02:02:24;25.67;;;13.40;;
52554;SDS011;38455;52.710;6.502;2023-05-14T02:04:50;26.17;;;12.45;;
52554;SDS011;38455;52.710;6.502;2023-05-14T02:07:16;21.30;;;12.63;;
52554;SDS011;38455;52.710;6.502;2023-05-14T02:09:42;24.17;;;13.30;;
52554;SDS011;38455;52.710;6.502;2023-05-14T02:12:08;23.67;;;12.75;;
52554;SDS011;38455;52.710;6.502;2023-05-14T02:14:35;25.08;;;13.50;;
52554;SDS011;38455;52.710;6.502;2023-05-14T02:17:01;20.73;;;12.75;;
52554;SDS011;38455;52.710;6.502;2023-05-14T02:19:27;27.55;;;13.88;;
52554;SDS011;38455;52.710;6.502;2023-05-14T02:21:53;21.95;;;13.18;;
52554;SDS011;38455;52.710;6.502;2023-05-14T02:24:19;27.25;;;13.95;;
52554;SDS011;38455;52.710;6.502;2023-05-14T02:26:45;23.67;;;13.93;;
52554;SDS011;38455;52.710;6.502;2023-05-14T02:29:11;28.20;;;15.05;;
52554;SDS011;38455;52.710;6.502;2023-05-14T02:31:36;21.98;;;13.90;;
52554;SDS011;38455;52.710;6.502;2023-05-14T02:34:03;24.42;;;14.30;;
52554;SDS011;38455;52.710;6.502;2023-05-14T02:36:30;22.60;;;13.90;;
52554;SDS011;38455;52.710;6.502;2023-05-14T02:38:57;25.05;;;14.05;;
52554;SDS011;38455;52.710;6.502;2023-05-14T02:41:23;23.45;;;13.73;;
52554;SDS011;38455;52.710;6.502;2023-05-14T02:43:49;23.52;;;13.60;;
52554;SDS011;38455;52.710;6.502;2023-05-14T02:46:16;22.33;;;13.38;;
52554;SDS011;38455;52.710;6.502;2023-05-14T02:48:41;17.92;;;13.43;;
52554;SDS011;38455;52.710;6.502;2023-05-14T02:51:07;20.52;;;12.82;;
52554;SDS011;38455;52.710;6.502;2023-05-14T02:53:33;21.58;;;12.65;;
52554;SDS011;38455;52.710;6.502;2023-05-14T02:55:59;21.70;;;13.30;;
52554;SDS011;38455;52.710;6.502;2023-05-14T02:58:24;24.08;;;13.32;;
52554;SDS011;38455;52.710;6.502;2023-05-14T03:00:50;20.80;;;13.52;;
52554;SDS011;38455;52.710;6.502;2023-05-14T03:03:17;22.08;;;14.15;;
52554;SDS011;38455;52.710;6.502;2023-05-14T03:05:43;25.75;;;13.88;;
52554;SDS011;38455;52.710;6.502;2023-05-14T03:08:09;21.42;;;15.07;;
52554;SDS011;38455;52.710;6.502;2023-05-14T03:10:35;20.33;;;12.57;;
52554;SDS011;38455;52.710;6.502;2023-05-14T03:13:01;24.25;;;14.05;;
52554;SDS011;38455;52.710;6.502;2023-05-14T03:15:26;22.40;;;14.63;;
52554;SDS011;38455;52.710;6.502;2023-05-14T03:17:52;25.60;;;14.57;;
52554;SDS011;38455;52.710;6.502;2023-05-14T03:20:18;23.90;;;14.95;;
52554;SDS011;38455;52.710;6.502;2023-05-14T03:22:44;26.33;;;14.55;;
52554;SDS011;38455;52.710;6.502;2023-05-14T03:25:10;25.95;;;15.23;;
52554;SDS011;38455;52.710;6.502;2023-05-14T03:27:36;28.73;;;13.73;;
52554;SDS011;38455;52.710;6.502;2023-05-14T03:30:01;21.80;;;14.68;;
52554;SDS011;38455;52.710;6.502;2023-05-14T03:32:27;20.40;;;14.80;;
52554;SDS011;38455;52.710;6.502;2023-05-14T03:34:54;27.77;;;15.55;;
52554;SDS011;38455;52.710;6.502;2023-05-14T03:37:19;23.60;;;15.00;;
52554;SDS011;38455;52.710;6.502;2023-05-14T03:39:45;32.08;;;14.98;;
52554;SDS011;38455;52.710;6.502;2023-05-14T03:42:11;24.67;;;14.68;;
52554;SDS011;38455;52.710;6.502;2023-05-14T03:44:36;26.27;;;15.05;;
52554;SDS011;38455;52.710;6.502;2023-05-14T03:47:02;23.63;;;14.30;;
52554;SDS011;38455;52.710;6.502;2023-05-14T03:49:28;24.00;;;15.45;;
52554;SDS011;38455;52.710;6.502;2023-05-14T03:51:53;22.92;;;15.38;;
52554;SDS011;38455;52.710;6.502;2023-05-14T03:54:19;24.67;;;14.45;;
52554;SDS011;38455;52.710;6.502;2023-05-14T03:56:45;25.95;;;15.38;;
52554;SDS011;38455;52.710;6.502;2023-05-14T03:59:11;26.92;;;15.88;;
52554;SDS011;38455;52.710;6.502;2023-05-14T04:01:37;25.58;;;15.15;;
52554;SDS011;38455;52.710;6.502;2023-05-14T04:04:02;23.98;;;15.20;;
52554;SDS011;38455;52.710;6.502;2023-05-14T04:06:28;27.30;;;14.95;;
52554;SDS011;38455;52.710;6.502;2023-05-14T04:08:54;27.23;;;15.90;;
52554;SDS011;38455;52.710;6.502;2023-05-14T04:11:19;26.73;;;15.85;;
52554;SDS011;38455;52.710;6.502;2023-05-14T04:13:45;28.88;;;17.00;;
52554;SDS011;38455;52.710;6.502;2023-05-14T04:16:11;23.70;;;15.90;;
52554;SDS011;38455;52.710;6.502;2023-05-14T04:18:37;23.20;;;14.98;;
52554;SDS011;38455;52.710;6.502;2023-05-14T04:21:02;24.52;;;14.73;;
52554;SDS011;38455;52.710;6.502;2023-05-14T04:23:28;22.50;;;15.63;;
52554;SDS011;38455;52.710;6.502;2023-05-14T04:25:55;29.52;;;14.82;;
52554;SDS011;38455;52.710;6.502;2023-05-14T04:28:21;25.08;;;14.85;;
52554;SDS011;38455;52.710;6.502;2023-05-14T04:30:47;26.20;;;15.60;;
52554;SDS011;38455;52.710;6.502;2023-05-14T04:33:13;20.42;;;13.80;;
52554;SDS011;38455;52.710;6.502;2023-05-14T04:35:39;22.33;;;14.05;;
52554;SDS011;38455;52.710;6.502;2023-05-14T04:38:05;23.23;;;14.05;;
52554;SDS011;38455;52.710;6.502;2023-05-14T04:40:31;22.02;;;13.38;;
52554;SDS011;38455;52.710;6.502;2023-05-14T04:42:57;25.55;;;14.50;;
52554;SDS011;38455;52.710;6.502;2023-05-14T04:45:22;21.58;;;13.75;;
52554;SDS011;38455;52.710;6.502;2023-05-14T04:47:48;22.70;;;13.85;;
52554;SDS011;38455;52.710;6.502;2023-05-14T04:50:14;23.50;;;13.45;;
52554;SDS011;38455;52.710;6.502;2023-05-14T04:52:39;24.13;;;13.93;;
52554;SDS011;38455;52.710;6.502;2023-05-14T04:55:05;23.77;;;13.02;;
52554;SDS011;38455;52.710;6.502;2023-05-14T04:57:32;17.85;;;12.55;;
52554;SDS011;38455;52.710;6.502;2023-05-14T04:59:58;19.77;;;12.52;;
52554;SDS011;38455;52.710;6.502;2023-05-14T05:02:23;18.95;;;11.77;;
52554;SDS011;38455;52.710;6.502;2023-05-14T05:04:49;16.10;;;12.05;;
52554;SDS011;38455;52.710;6.502;2023-05-14T05:07:15;19.52;;;12.18;;
52554;SDS011;38455;52.710;6.502;2023-05-14T05:09:41;19.75;;;12.80;;
52554;SDS011;38455;52.710;6.502;2023-05-14T05:12:07;25.33;;;13.23;;
52554;SDS011;38455;52.710;6.502;2023-05-14T05:14:33;19.48;;;12.38;;
52554;SDS011;38455;52.710;6.502;2023-05-14T05:16:58;21.13;;;11.07;;
52554;SDS011;38455;52.710;6.502;2023-05-14T05:19:24;13.93;;;10.00;;
52554;SDS011;38455;52.710;6.502;2023-05-14T05:21:50;20.30;;;10.30;;
52554;SDS011;38455;52.710;6.502;2023-05-14T05:24:15;13.90;;;9.93;;
52554;SDS011;38455;52.710;6.502;2023-05-14T05:26:41;15.32;;;8.88;;
52554;SDS011;38455;52.710;6.502;2023-05-14T05:29:07;15.10;;;8.50;;
52554;SDS011;38455;52.710;6.502;2023-05-14T05:31:32;14.07;;;9.95;;
52554;SDS011;38455;52.710;6.502;2023-05-14T05:33:58;12.30;;;9.00;;
52554;SDS011;38455;52.710;6.502;2023-05-14T05:36:24;13.02;;;9.60;;
52554;SDS011;38455;52.710;6.502;2023-05-14T05:38:50;14.57;;;9.35;;
52554;SDS011;38455;52.710;6.502;2023-05-14T05:41:16;20.45;;;8.63;;
52554;SDS011;38455;52.710;6.502;2023-05-14T05:43:42;10.82;;;7.63;;
52554;SDS011;38455;52.710;6.502;2023-05-14T05:46:07;12.70;;;8.38;;
52554;SDS011;38455;52.710;6.502;2023-05-14T05:48:33;12.25;;;8.38;;
52554;SDS011;38455;52.710;6.502;2023-05-14T05:50:58;14.52;;;8.43;;
52554;SDS011;38455;52.710;6.502;2023-05-14T05:53:24;13.60;;;8.18;;
52554;SDS011;38455;52.710;6.502;2023-05-14T05:55:50;12.40;;;7.78;;
52554;SDS011;38455;52.710;6.502;2023-05-14T05:58:16;12.07;;;7.55;;
52554;SDS011;38455;52.710;6.502;2023-05-14T06:00:45;12.52;;;7.65;;
52554;SDS011;38455;52.710;6.502;2023-05-14T06:03:11;9.60;;;7.35;;
52554;SDS011;38455;52.710;6.502;2023-05-14T06:05:38;9.75;;;7.18;;
52554;SDS011;38455;52.710;6.502;2023-05-14T06:08:04;11.65;;;7.43;;
52554;SDS011;38455;52.710;6.502;2023-05-14T06:10:30;14.80;;;7.82;;
52554;SDS011;38455;52.710;6.502;2023-05-14T06:12:56;14.57;;;7.22;;
52554;SDS011;38455;52.710;6.502;2023-05-14T06:15:21;13.77;;;7.25;;
52554;SDS011;38455;52.710;6.502;2023-05-14T06:17:47;11.27;;;7.43;;
52554;SDS011;38455;52.710;6.502;2023-05-14T06:20:13;13.82;;;7.53;;
52554;SDS011;38455;52.710;6.502;2023-05-14T06:22:38;12.68;;;7.10;;
52554;SDS011;38455;52.710;6.502;2023-05-14T06:25:04;15.52;;;7.40;;
52554;SDS011;38455;52.710;6.502;2023-05-14T06:27:30;12.20;;;7.03;;
52554;SDS011;38455;52.710;6.502;2023-05-14T06:29:56;14.13;;;8.30;;
52554;SDS011;38455;52.710;6.502;2023-05-14T06:32:22;13.90;;;8.10;;
52554;SDS011;38455;52.710;6.502;2023-05-14T06:34:48;10.60;;;7.05;;
52554;SDS011;38455;52.710;6.502;2023-05-14T06:37:13;10.38;;;7.18;;
52554;SDS011;38455;52.710;6.502;2023-05-14T06:39:39;12.93;;;7.22;;
52554;SDS011;38455;52.710;6.502;2023-05-14T06:42:10;15.02;;;7.60;;
52554;SDS011;38455;52.710;6.502;2023-05-14T06:44:36;12.15;;;6.68;;
52554;SDS011;38455;52.710;6.502;2023-05-14T06:47:01;14.23;;;6.82;;
52554;SDS011;38455;52.710;6.502;2023-05-14T06:49:27;11.18;;;6.38;;
52554;SDS011;38455;52.710;6.502;2023-05-14T06:51:53;13.40;;;7.10;;
52554;SDS011;38455;52.710;6.502;2023-05-14T06:54:18;13.23;;;8.35;;
52554;SDS011;38455;52.710;6.502;2023-05-14T06:56:44;13.52;;;7.07;;
52554;SDS011;38455;52.710;6.502;2023-05-14T06:59:10;10.82;;;7.70;;
52554;SDS011;38455;52.710;6.502;2023-05-14T07:01:36;9.30;;;7.32;;
52554;SDS011;38455;52.710;6.502;2023-05-14T07:04:01;12.77;;;7.18;;
52554;SDS011;38455;52.710;6.502;2023-05-14T07:06:27;17.58;;;6.60;;
52554;SDS011;38455;52.710;6.502;2023-05-14T07:08:53;15.35;;;7.00;;
52554;SDS011;38455;52.710;6.502;2023-05-14T07:11:19;13.80;;;6.35;;
52554;SDS011;38455;52.710;6.502;2023-05-14T07:13:46;13.35;;;6.55;;
52554;SDS011;38455;52.710;6.502;2023-05-14T07:16:11;10.95;;;6.53;;
52554;SDS011;38455;52.710;6.502;2023-05-14T07:18:37;10.48;;;6.47;;
52554;SDS011;38455;52.710;6.502;2023-05-14T07:21:03;11.88;;;6.20;;
52554;SDS011;38455;52.710;6.502;2023-05-14T07:23:30;12.32;;;6.70;;
52554;SDS011;38455;52.710;6.502;2023-05-14T07:25:57;12.98;;;7.72;;
52554;SDS011;38455;52.710;6.502;2023-05-14T07:28:22;12.70;;;7.15;;
52554;SDS011;38455;52.710;6.502;2023-05-14T07:30:48;13.13;;;6.72;;
52554;SDS011;38455;52.710;6.502;2023-05-14T07:33:13;12.25;;;6.30;;
52554;SDS011;38455;52.710;6.502;2023-05-14T07:35:39;10.85;;;6.32;;
52554;SDS011;38455;52.710;6.502;2023-05-14T07:38:05;10.50;;;6.40;;
52554;SDS011;38455;52.710;6.502;2023-05-14T07:40:31;10.25;;;6.25;;
52554;SDS011;38455;52.710;6.502;2023-05-14T07:42:56;10.18;;;6.93;;
52554;SDS011;38455;52.710;6.502;2023-05-14T07:45:22;13.23;;;6.85;;
52554;SDS011;38455;52.710;6.502;2023-05-14T07:47:48;13.45;;;6.22;;
52554;SDS011;38455;52.710;6.502;2023-05-14T07:50:17;10.75;;;6.32;;
52554;SDS011;38455;52.710;6.502;2023-05-14T07:52:43;11.30;;;5.78;;
52554;SDS011;38455;52.710;6.502;2023-05-14T07:55:09;14.50;;;5.97;;
52554;SDS011;38455;52.710;6.502;2023-05-14T07:57:36;10.95;;;6.10;;
52554;SDS011;38455;52.710;6.502;2023-05-14T08:00:02;12.52;;;5.90;;
52554;SDS011;38455;52.710;6.502;2023-05-14T08:02:31;9.60;;;6.57;;
52554;SDS011;38455;52.710;6.502;2023-05-14T08:04:57;11.90;;;6.07;;
52554;SDS011;38455;52.710;6.502;2023-05-14T08:07:23;11.32;;;6.00;;
52554;SDS011;38455;52.710;6.502;2023-05-14T08:09:49;13.65;;;6.40;;
52554;SDS011;38455;52.710;6.502;2023-05-14T08:12:15;9.95;;;5.05;;
52554;SDS011;38455;52.710;6.502;2023-05-14T08:14:40;10.20;;;5.75;;
52554;SDS011;38455;52.710;6.502;2023-05-14T08:17:06;10.32;;;6.00;;
52554;SDS011;38455;52.710;6.502;2023-05-14T08:19:32;10.10;;;5.22;;
52554;SDS011;38455;52.710;6.502;2023-05-14T08:21:57;10.18;;;5.38;;
52554;SDS011;38455;52.710;6.502;2023-05-14T08:24:23;12.55;;;5.90;;
52554;SDS011;38455;52.710;6.502;2023-05-14T08:26:48;13.68;;;4.97;;
52554;SDS011;38455;52.710;6.502;2023-05-14T08:29:14;12.63;;;5.07;;
52554;SDS011;38455;52.710;6.502;2023-05-14T08:31:40;10.70;;;4.82;;
52554;SDS011;38455;52.710;6.502;2023-05-14T08:34:06;11.05;;;5.35;;
52554;SDS011;38455;52.710;6.502;2023-05-14T08:36:31;9.63;;;5.05;;
52554;SDS011;38455;52.710;6.502;2023-05-14T08:38:57;12.88;;;5.32;;
52554;SDS011;38455;52.710;6.502;2023-05-14T08:41:23;11.05;;;5.07;;
52554;SDS011;38455;52.710;6.502;2023-05-14T08:43:56;10.95;;;5.20;;
52554;SDS011;38455;52.710;6.502;2023-05-14T08:46:25;13.57;;;5.20;;
52554;SDS011;38455;52.710;6.502;2023-05-14T08:48:55;10.45;;;5.03;;
52554;SDS011;38455;52.710;6.502;2023-05-14T08:51:25;13.77;;;5.80;;
52554;SDS011;38455;52.710;6.502;2023-05-14T08:53:51;11.00;;;5.00;;
52554;SDS011;38455;52.710;6.502;2023-05-14T08:56:17;12.40;;;5.78;;
52554;SDS011;38455;52.710;6.502;2023-05-14T08:58:43;11.43;;;5.28;;
52554;SDS011;38455;52.710;6.502;2023-05-14T09:01:09;12.48;;;6.15;;
52554;SDS011;38455;52.710;6.502;2023-05-14T09:03:35;9.57;;;5.75;;
52554;SDS011;38455;52.710;6.502;2023-05-14T09:06:01;8.48;;;5.20;;
52554;SDS011;38455;52.710;6.502;2023-05-14T09:08:28;7.45;;;4.15;;
52554;SDS011;38455;52.710;6.502;2023-05-14T09:10:54;9.00;;;4.95;;
52554;SDS011;38455;52.710;6.502;2023-05-14T09:13:19;10.18;;;4.85;;
52554;SDS011;38455;52.710;6.502;2023-05-14T09:15:45;11.73;;;4.75;;
52554;SDS011;38455;52.710;6.502;2023-05-14T09:18:12;20.63;;;7.18;;
52554;SDS011;38455;52.710;6.502;2023-05-14T09:20:38;11.68;;;4.93;;
52554;SDS011;38455;52.710;6.502;2023-05-14T09:23:04;11.68;;;4.30;;
52554;SDS011;38455;52.710;6.502;2023-05-14T09:25:30;9.45;;;4.53;;
52554;SDS011;38455;52.710;6.502;2023-05-14T09:27:56;12.75;;;5.10;;
52554;SDS011;38455;52.710;6.502;2023-05-14T09:30:23;8.73;;;4.70;;
52554;SDS011;38455;52.710;6.502;2023-05-14T09:32:49;9.32;;;4.60;;
52554;SDS011;38455;52.710;6.502;2023-05-14T09:35:18;9.05;;;5.03;;
52554;SDS011;38455;52.710;6.502;2023-05-14T09:37:46;13.77;;;5.18;;
52554;SDS011;38455;52.710;6.502;2023-05-14T09:40:17;10.40;;;5.30;;
52554;SDS011;38455;52.710;6.502;2023-05-14T09:42:44;10.30;;;5.25;;
52554;SDS011;38455;52.710;6.502;2023-05-14T09:45:10;10.52;;;5.28;;
52554;SDS011;38455;52.710;6.502;2023-05-14T09:47:37;12.45;;;5.38;;
52554;SDS011;38455;52.710;6.502;2023-05-14T09:50:03;10.98;;;5.22;;
52554;SDS011;38455;52.710;6.502;2023-05-14T09:52:30;9.65;;;4.60;;
52554;SDS011;38455;52.710;6.502;2023-05-14T09:54:56;11.27;;;4.70;;
52554;SDS011;38455;52.710;6.502;2023-05-14T09:57:22;8.73;;;4.22;;
52554;SDS011;38455;52.710;6.502;2023-05-14T09:59:48;12.43;;;5.22;;
52554;SDS011;38455;52.710;6.502;2023-05-14T10:02:23;8.30;;;4.65;;
52554;SDS011;38455;52.710;6.502;2023-05-14T10:04:51;13.18;;;4.78;;
52554;SDS011;38455;52.710;6.502;2023-05-14T10:07:20;9.65;;;4.03;;
52554;SDS011;38455;52.710;6.502;2023-05-14T10:09:52;8.13;;;4.70;;
52554;SDS011;38455;52.710;6.502;2023-05-14T10:12:23;13.82;;;5.00;;
52554;SDS011;38455;52.710;6.502;2023-05-14T10:14:55;12.23;;;4.68;;
52554;SDS011;38455;52.710;6.502;2023-05-14T10:17:23;14.65;;;4.90;;
52554;SDS011;38455;52.710;6.502;2023-05-14T10:19:55;8.32;;;3.97;;
52554;SDS011;38455;52.710;6.502;2023-05-14T10:22:23;9.25;;;4.65;;
52554;SDS011;38455;52.710;6.502;2023-05-14T10:24:55;8.02;;;4.20;;
52554;SDS011;38455;52.710;6.502;2023-05-14T10:27:20;6.65;;;4.45;;
52554;SDS011;38455;52.710;6.502;2023-05-14T10:29:50;8.60;;;3.78;;
52554;SDS011;38455;52.710;6.502;2023-05-14T10:32:18;13.45;;;4.20;;
52554;SDS011;38455;52.710;6.502;2023-05-14T10:34:49;8.70;;;3.97;;
52554;SDS011;38455;52.710;6.502;2023-05-14T10:37:17;7.07;;;3.58;;
52554;SDS011;38455;52.710;6.502;2023-05-14T10:39:51;10.38;;;4.32;;
52554;SDS011;38455;52.710;6.502;2023-05-14T10:42:19;10.48;;;3.97;;
52554;SDS011;38455;52.710;6.502;2023-05-14T10:45:01;6.45;;;4.18;;
52554;SDS011;38455;52.710;6.502;2023-05-14T10:47:47;7.95;;;4.10;;
52554;SDS011;38455;52.710;6.502;2023-05-14T10:50:13;8.93;;;3.92;;
52554;SDS011;38455;52.710;6.502;2023-05-14T10:52:40;8.07;;;4.07;;
52554;SDS011;38455;52.710;6.502;2023-05-14T10:55:07;11.52;;;3.70;;
52554;SDS011;38455;52.710;6.502;2023-05-14T10:57:37;9.27;;;4.00;;
52554;SDS011;38455;52.710;6.502;2023-05-14T11:00:03;11.70;;;4.53;;
52554;SDS011;38455;52.710;6.502;2023-05-14T11:02:32;10.52;;;3.80;;
52554;SDS011;38455;52.710;6.502;2023-05-14T11:05:03;10.07;;;4.72;;
52554;SDS011;38455;52.710;6.502;2023-05-14T11:07:35;7.78;;;3.00;;
52554;SDS011;38455;52.710;6.502;2023-05-14T11:10:12;7.22;;;3.00;;
52554;SDS011;38455;52.710;6.502;2023-05-14T11:12:43;8.02;;;3.33;;
52554;SDS011;38455;52.710;6.502;2023-05-14T11:15:10;8.25;;;3.30;;
52554;SDS011;38455;52.710;6.502;2023-05-14T11:17:39;10.05;;;3.75;;
52554;SDS011;38455;52.710;6.502;2023-05-14T11:20:06;8.25;;;3.05;;
52554;SDS011;38455;52.710;6.502;2023-05-14T11:22:35;6.00;;;2.55;;
52554;SDS011;38455;52.710;6.502;2023-05-14T11:25:02;11.82;;;3.42;;
52554;SDS011;38455;52.710;6.502;2023-05-14T11:27:28;8.55;;;2.60;;
52554;SDS011;38455;52.710;6.502;2023-05-14T11:29:55;5.78;;;2.47;;
52554;SDS011;38455;52.710;6.502;2023-05-14T11:32:22;8.05;;;3.30;;
52554;SDS011;38455;52.710;6.502;2023-05-14T11:34:47;7.80;;;3.20;;
52554;SDS011;38455;52.710;6.502;2023-05-14T11:37:14;8.02;;;3.10;;
52554;SDS011;38455;52.710;6.502;2023-05-14T11:39:47;6.03;;;2.60;;
52554;SDS011;38455;52.710;6.502;2023-05-14T11:42:14;6.68;;;3.30;;
52554;SDS011;38455;52.710;6.502;2023-05-14T11:44:43;5.75;;;2.50;;
52554;SDS011;38455;52.710;6.502;2023-05-14T11:47:13;8.45;;;3.20;;
52554;SDS011;38455;52.710;6.502;2023-05-14T11:49:39;10.38;;;3.15;;
52554;SDS011;38455;52.710;6.502;2023-05-14T11:52:06;5.45;;;2.75;;
52554;SDS011;38455;52.710;6.502;2023-05-14T11:54:35;6.05;;;3.08;;
52554;SDS011;38455;52.710;6.502;2023-05-14T11:57:02;10.52;;;3.05;;
52554;SDS011;38455;52.710;6.502;2023-05-14T11:59:32;8.63;;;3.20;;
52554;SDS011;38455;52.710;6.502;2023-05-14T12:01:58;6.45;;;2.97;;
52554;SDS011;38455;52.710;6.502;2023-05-14T12:04:25;5.35;;;2.13;;
52554;SDS011;38455;52.710;6.502;2023-05-14T12:06:52;6.97;;;2.40;;
52554;SDS011;38455;52.710;6.502;2023-05-14T12:09:19;5.65;;;2.50;;
52554;SDS011;38455;52.710;6.502;2023-05-14T12:11:46;6.43;;;2.20;;
52554;SDS011;38455;52.710;6.502;2023-05-14T12:14:14;7.38;;;2.72;;
52554;SDS011;38455;52.710;6.502;2023-05-14T12:16:42;4.80;;;2.20;;
52554;SDS011;38455;52.710;6.502;2023-05-14T12:19:09;4.95;;;2.17;;
52554;SDS011;38455;52.710;6.502;2023-05-14T12:21:37;6.32;;;2.58;;
52554;SDS011;38455;52.710;6.502;2023-05-14T12:24:03;6.93;;;2.85;;
52554;SDS011;38455;52.710;6.502;2023-05-14T12:26:33;6.80;;;2.45;;
52554;SDS011;38455;52.710;6.502;2023-05-14T12:28:59;7.22;;;2.90;;
52554;SDS011;38455;52.710;6.502;2023-05-14T12:31:29;4.60;;;2.53;;
52554;SDS011;38455;52.710;6.502;2023-05-14T12:33:55;6.50;;;2.65;;
52554;SDS011;38455;52.710;6.502;2023-05-14T12:36:22;6.13;;;3.05;;
52554;SDS011;38455;52.710;6.502;2023-05-14T12:38:48;6.75;;;2.58;;
52554;SDS011;38455;52.710;6.502;2023-05-14T12:41:14;5.72;;;2.78;;
52554;SDS011;38455;52.710;6.502;2023-05-14T12:43:42;4.97;;;2.17;;
52554;SDS011;38455;52.710;6.502;2023-05-14T12:46:08;3.88;;;2.38;;
52554;SDS011;38455;52.710;6.502;2023-05-14T12:48:33;4.63;;;2.28;;
52554;SDS011;38455;52.710;6.502;2023-05-14T12:50:59;4.13;;;2.80;;
52554;SDS011;38455;52.710;6.502;2023-05-14T12:53:25;8.82;;;2.97;;
52554;SDS011;38455;52.710;6.502;2023-05-14T12:55:50;7.38;;;2.85;;
52554;SDS011;38455;52.710;6.502;2023-05-14T12:58:16;7.55;;;2.65;;
52554;SDS011;38455;52.710;6.502;2023-05-14T13:00:42;7.28;;;2.65;;
52554;SDS011;38455;52.710;6.502;2023-05-14T13:03:07;6.60;;;2.53;;
52554;SDS011;38455;52.710;6.502;2023-05-14T13:05:33;3.30;;;2.20;;
52554;SDS011;38455;52.710;6.502;2023-05-14T13:07:59;5.00;;;2.50;;
52554;SDS011;38455;52.710;6.502;2023-05-14T13:10:27;8.88;;;2.17;;
52554;SDS011;38455;52.710;6.502;2023-05-14T13:12:53;11.60;;;2.10;;
52554;SDS011;38455;52.710;6.502;2023-05-14T13:15:20;8.65;;;2.33;;
52554;SDS011;38455;52.710;6.502;2023-05-14T13:17:47;6.30;;;3.20;;
52554;SDS011;38455;52.710;6.502;2023-05-14T13:20:13;5.50;;;2.13;;
52554;SDS011;38455;52.710;6.502;2023-05-14T13:22:39;8.73;;;2.42;;
52554;SDS011;38455;52.710;6.502;2023-05-14T13:25:05;4.72;;;2.28;;
52554;SDS011;38455;52.710;6.502;2023-05-14T13:27:31;9.38;;;1.60;;
52554;SDS011;38455;52.710;6.502;2023-05-14T13:29:57;7.13;;;1.80;;
52554;SDS011;38455;52.710;6.502;2023-05-14T13:32:24;4.78;;;1.65;;
52554;SDS011;38455;52.710;6.502;2023-05-14T13:34:50;4.55;;;1.88;;
52554;SDS011;38455;52.710;6.502;2023-05-14T13:37:15;4.03;;;1.80;;
52554;SDS011;38455;52.710;6.502;2023-05-14T13:39:41;7.65;;;2.00;;
52554;SDS011;38455;52.710;6.502;2023-05-14T13:42:07;2.95;;;1.70;;
52554;SDS011;38455;52.710;6.502;2023-05-14T13:44:32;3.90;;;1.90;;
52554;SDS011;38455;52.710;6.502;2023-05-14T13:47:00;6.00;;;2.00;;
52554;SDS011;38455;52.710;6.502;2023-05-14T13:49:25;4.95;;;1.90;;
52554;SDS011;38455;52.710;6.502;2023-05-14T13:51:51;4.55;;;1.98;;
52554;SDS011;38455;52.710;6.502;2023-05-14T13:54:16;3.95;;;1.80;;
52554;SDS011;38455;52.710;6.502;2023-05-14T13:56:42;5.35;;;1.70;;
52554;SDS011;38455;52.710;6.502;2023-05-14T13:59:08;4.47;;;2.05;;
52554;SDS011;38455;52.710;6.502;2023-05-14T14:01:35;5.45;;;2.05;;
52554;SDS011;38455;52.710;6.502;2023-05-14T14:04:00;8.75;;;2.33;;
52554;SDS011;38455;52.710;6.502;2023-05-14T14:06:29;5.55;;;1.98;;
52554;SDS011;38455;52.710;6.502;2023-05-14T14:08:56;4.82;;;2.42;;
52554;SDS011;38455;52.710;6.502;2023-05-14T14:11:21;6.45;;;2.60;;
52554;SDS011;38455;52.710;6.502;2023-05-14T14:13:47;5.55;;;2.55;;
52554;SDS011;38455;52.710;6.502;2023-05-14T14:16:13;6.45;;;2.47;;
52554;SDS011;38455;52.710;6.502;2023-05-14T14:18:39;6.97;;;2.25;;
52554;SDS011;38455;52.710;6.502;2023-05-14T14:21:05;4.20;;;2.30;;
52554;SDS011;38455;52.710;6.502;2023-05-14T14:23:31;4.63;;;2.25;;
52554;SDS011;38455;52.710;6.502;2023-05-14T14:25:56;7.35;;;2.75;;
52554;SDS011;38455;52.710;6.502;2023-05-14T14:28:22;5.40;;;2.35;;
52554;SDS011;38455;52.710;6.502;2023-05-14T14:30:49;7.32;;;2.47;;
52554;SDS011;38455;52.710;6.502;2023-05-14T14:33:14;4.30;;;2.78;;
52554;SDS011;38455;52.710;6.502;2023-05-14T14:35:40;6.38;;;2.50;;
52554;SDS011;38455;52.710;6.502;2023-05-14T14:38:06;4.95;;;2.88;;